Time;durP1;ratioP1;P1;durP2;ratioP2;P2;SDS_P1;SDS_P2;PMS_P1;PMS_P2;Temp;Humidity;BMP_temperature;BMP_pressure;BME280_temperature;BME280_humidity;BME280_pressure;Samples;Min_cycle;Max_cycle;Signal;HPM_P1;HPM_P2
2023/09/20 00:01:23;;;;;;;7.45;4.40;;;21.20;47.50;;;;;;5026121;28;20514;-72
2023/09/20 00:03:50;;;;;;;6.00;4.13;;;21.20;47.50;;;;;;5020361;28;20057;-72
2023/09/20 00:06:17;;;;;;;6.10;4.50;;;21.10;47.50;;;;;;5026946;28;20065;-72
2023/09/20 00:08:43;;;;;;;5.75;4.45;;;21.10;47.60;;;;;;5022068;28;20069;-71
2023/09/20 00:11:15;;;;;;;9.57;4.55;;;21.10;47.70;;;;;;5020681;28;20022;-71
2023/09/20 00:13:48;;;;;;;6.63;4.78;;;21.10;47.80;;;;;;5021915;28;20025;-71
2023/09/20 00:16:14;;;;;;;10.52;6.03;;;21.00;47.80;;;;;;5025248;28;20037;-71
2023/09/20 00:18:40;;;;;;;11.02;7.10;;;21.00;47.90;;;;;;5020654;28;20381;-72
2023/09/20 00:21:06;;;;;;;10.90;7.88;;;21.00;47.90;;;;;;5031757;28;20423;-72
2023/09/20 00:23:31;;;;;;;16.10;10.25;;;21.00;48.00;;;;;;5020504;28;20028;-71
2023/09/20 00:25:57;;;;;;;15.55;10.55;;;21.00;48.10;;;;;;5020468;28;20034;-71
2023/09/20 00:28:23;;;;;;;14.02;10.13;;;21.00;48.10;;;;;;5018395;28;20038;-71
2023/09/20 00:30:49;;;;;;;15.13;11.07;;;21.00;48.20;;;;;;5014439;28;20030;-72
2023/09/20 00:33:15;;;;;;;14.93;10.45;;;21.00;48.30;;;;;;5019974;28;20402;-71
2023/09/20 00:35:40;;;;;;;14.98;11.07;;;21.00;48.30;;;;;;5025939;28;20484;-72
2023/09/20 00:38:07;;;;;;;15.43;11.48;;;20.90;48.30;;;;;;5022393;28;20036;-71
2023/09/20 00:40:37;;;;;;;17.98;11.15;;;20.90;48.40;;;;;;5020107;28;20026;-71
2023/09/20 00:43:07;;;;;;;16.15;11.05;;;20.90;48.50;;;;;;5018153;28;20136;-71
2023/09/20 00:45:36;;;;;;;15.20;10.70;;;21.00;48.50;;;;;;5017543;28;20427;-71
2023/09/20 00:48:05;;;;;;;13.85;10.38;;;21.00;48.60;;;;;;5014685;28;20041;-72
2023/09/20 00:50:31;;;;;;;12.93;9.95;;;21.00;48.60;;;;;;5024347;28;20025;-71
2023/09/20 00:52:58;;;;;;;13.23;10.00;;;21.00;48.60;;;;;;5013478;28;20539;-71
2023/09/20 00:55:26;;;;;;;12.95;9.05;;;21.00;48.60;;;;;;5025681;28;20080;-72
2023/09/20 00:57:56;;;;;;;11.93;8.63;;;21.00;48.70;;;;;;5031572;28;20387;-71
2023/09/20 01:00:27;;;;;;;12.70;7.95;;;21.00;48.70;;;;;;5033564;28;20050;-71
2023/09/20 01:02:54;;;;;;;10.68;7.35;;;21.00;48.70;;;;;;5033605;28;20140;-71
2023/09/20 01:05:21;;;;;;;9.55;7.35;;;21.00;48.80;;;;;;5031842;28;20040;-71
2023/09/20 01:07:55;;;;;;;8.85;6.43;;;20.90;48.70;;;;;;5017438;28;20546;-71
2023/09/20 01:10:25;;;;;;;9.40;6.47;;;20.90;48.80;;;;;;5012166;28;20161;-72
2023/09/20 01:12:59;;;;;;;8.63;5.78;;;20.90;48.80;;;;;;5013568;28;20026;-71
2023/09/20 01:15:26;;;;;;;7.75;6.07;;;20.90;48.90;;;;;;5016021;28;20030;-71
2023/09/20 01:17:57;;;;;;;6.80;5.30;;;20.90;49.00;;;;;;5016792;28;20037;-72
2023/09/20 01:20:24;;;;;;;8.32;5.22;;;20.90;49.70;;;;;;5016596;28;20033;-71
2023/09/20 01:22:51;;;;;;;6.78;5.03;;;20.90;49.10;;;;;;5016416;28;20022;-71
2023/09/20 01:25:43;;;;;;;5.65;4.55;;;21.00;49.10;;;;;;5015763;28;20376;-71
2023/09/20 01:28:10;;;;;;;5.38;4.28;;;21.00;49.20;;;;;;5020322;28;20076;-72
2023/09/20 01:30:41;;;;;;;4.45;3.88;;;21.00;49.20;;;;;;5036262;28;20064;-71
2023/09/20 01:33:08;;;;;;;5.32;4.30;;;21.00;49.20;;;;;;5026608;28;20029;-71
2023/09/20 01:35:34;;;;;;;9.52;4.43;;;20.90;49.20;;;;;;5020231;28;20125;-72
2023/09/20 01:38:04;;;;;;;6.45;4.70;;;21.00;49.30;;;;;;5023357;28;20104;-72
2023/09/20 01:40:33;;;;;;;6.53;4.80;;;21.00;49.30;;;;;;5024286;28;20026;-71
2023/09/20 01:42:59;;;;;;;8.38;4.80;;;21.00;49.30;;;;;;5016626;28;20022;-72
2023/09/20 01:45:25;;;;;;;6.18;4.78;;;21.10;49.40;;;;;;5031580;28;20480;-71
2023/09/20 01:47:53;;;;;;;5.93;4.43;;;21.00;49.30;;;;;;5016100;28;20118;-72
2023/09/20 01:50:21;;;;;;;5.63;4.78;;;21.10;49.40;;;;;;5033995;28;20033;-71
2023/09/20 01:52:50;;;;;;;4.80;4.22;;;21.10;49.30;;;;;;5024664;28;20025;-72
2023/09/20 01:55:18;;;;;;;5.25;4.40;;;21.10;49.40;;;;;;5034697;28;20387;-72
2023/09/20 01:57:45;;;;;;;4.82;4.07;;;21.10;49.40;;;;;;5033454;28;20029;-71
2023/09/20 02:00:22;;;;;;;5.18;3.78;;;21.10;49.30;;;;;;5032476;28;20021;-71
2023/09/20 02:02:53;;;;;;;5.95;3.88;;;21.10;49.40;;;;;;5027028;28;20365;-72
2023/09/20 02:05:20;;;;;;;5.15;3.50;;;21.10;49.40;;;;;;5030806;28;20026;-72
2023/09/20 02:07:50;;;;;;;6.60;3.78;;;21.20;49.40;;;;;;5024723;28;20022;-71
2023/09/20 02:10:17;;;;;;;5.55;3.78;;;21.10;49.40;;;;;;5015408;28;20034;-72
2023/09/20 02:13:00;;;;;;;4.45;3.50;;;21.20;49.40;;;;;;5027989;28;20490;-72
2023/09/20 02:15:28;;;;;;;6.57;3.80;;;21.10;49.50;;;;;;5032047;28;20542;-72
2023/09/20 02:17:54;;;;;;;5.22;3.60;;;21.10;49.40;;;;;;5034477;28;20670;-72
2023/09/20 02:20:23;;;;;;;4.97;3.58;;;21.10;49.40;;;;;;5015408;28;20517;-72
2023/09/20 02:22:51;;;;;;;4.18;3.30;;;21.10;49.50;;;;;;5025153;28;20033;-72
2023/09/20 02:25:26;;;;;;;4.90;3.42;;;21.10;49.50;;;;;;5013580;28;20026;-72
2023/09/20 02:27:57;;;;;;;4.20;3.63;;;21.10;49.50;;;;;;5014036;28;20065;-73
2023/09/20 02:30:28;;;;;;;3.72;3.20;;;21.10;49.60;;;;;;5015292;28;20026;-72
2023/09/20 02:32:57;;;;;;;4.40;3.60;;;21.10;49.60;;;;;;5034096;28;20445;-72
2023/09/20 02:35:24;;;;;;;4.03;3.47;;;21.10;49.60;;;;;;5028915;28;20038;-72
2023/09/20 02:37:51;;;;;;;5.32;3.65;;;21.10;49.60;;;;;;5022005;28;20029;-72
2023/09/20 02:40:20;;;;;;;6.90;3.75;;;21.10;49.60;;;;;;5016592;28;20147;-72
2023/09/20 02:42:53;;;;;;;5.95;3.88;;;21.10;49.60;;;;;;5028343;28;20049;-73
2023/09/20 02:45:20;;;;;;;4.97;4.00;;;21.20;49.70;;;;;;5029331;28;20383;-72
2023/09/20 02:47:46;;;;;;;5.72;3.60;;;21.10;49.70;;;;;;5018404;28;20036;-72
2023/09/20 02:50:13;;;;;;;4.85;3.90;;;21.10;49.60;;;;;;5030663;28;20491;-72
2023/09/20 02:52:40;;;;;;;4.47;3.50;;;21.10;49.60;;;;;;5026818;28;20108;-72
2023/09/20 02:55:07;;;;;;;4.70;3.47;;;21.20;49.70;;;;;;5028355;28;20025;-71
2023/09/20 02:57:39;;;;;;;5.40;3.63;;;21.10;49.70;;;;;;5033763;28;20472;-72
2023/09/20 03:00:51;;;;;;;6.75;3.47;;;21.10;49.60;;;;;;5028820;28;20112;-71
2023/09/20 03:03:02;;;;;;;4.50;3.63;;;21.10;49.70;;;;;;5025972;28;20045;-72
2023/09/20 03:05:30;;;;;;;5.05;3.42;;;21.10;49.60;;;;;;5031690;28;20041;-72
2023/09/20 03:07:56;;;;;;;4.60;3.17;;;21.10;49.70;;;;;;5032483;28;20021;-72
2023/09/20 03:10:23;;;;;;;4.25;3.17;;;21.10;49.70;;;;;;5028148;28;20384;-72
2023/09/20 03:12:51;;;;;;;4.63;3.40;;;21.10;49.80;;;;;;5017373;28;20104;-72
2023/09/20 03:15:22;;;;;;;4.18;3.28;;;21.10;49.80;;;;;;5019239;28;20025;-72
2023/09/20 03:17:49;;;;;;;4.70;2.70;;;21.10;49.80;;;;;;5014545;28;20033;-72
2023/09/20 03:20:33;;;;;;;3.92;3.30;;;21.10;49.80;;;;;;5014449;28;20104;-72
2023/09/20 03:23:01;;;;;;;4.05;3.05;;;21.20;49.80;;;;;;5016933;28;20053;-72
2023/09/20 03:25:35;;;;;;;4.03;2.92;;;21.20;49.80;;;;;;5030664;28;20037;-73
2023/09/20 03:28:02;;;;;;;4.03;3.00;;;21.20;49.80;;;;;;5029253;28;20099;-72
2023/09/20 03:30:31;;;;;;;5.35;3.15;;;21.20;49.80;;;;;;5019318;28;20152;-72
2023/09/20 03:32:57;;;;;;;5.57;3.17;;;21.20;49.80;;;;;;5030672;28;20028;-73
2023/09/20 03:35:23;;;;;;;3.65;3.15;;;21.20;49.80;;;;;;5020530;28;20044;-72
2023/09/20 03:37:49;;;;;;;3.97;2.88;;;21.20;49.80;;;;;;5033357;28;20101;-71
2023/09/20 03:40:17;;;;;;;3.47;2.97;;;21.20;49.80;;;;;;5024747;28;20112;-72
2023/09/20 03:42:48;;;;;;;4.80;2.88;;;21.20;49.80;;;;;;5024786;28;20033;-71
2023/09/20 03:45:15;;;;;;;4.28;2.97;;;21.20;49.80;;;;;;5017336;28;20455;-72
2023/09/20 03:47:42;;;;;;;3.55;3.00;;;21.20;49.80;;;;;;5016051;28;20476;-72
2023/09/20 03:50:09;;;;;;;3.75;3.00;;;21.20;49.80;;;;;;5027491;28;20105;-71
2023/09/20 03:52:42;;;;;;;6.00;3.38;;;21.30;49.90;;;;;;5018616;28;20502;-72
2023/09/20 03:55:08;;;;;;;4.00;2.80;;;21.20;49.80;;;;;;5018763;28;20057;-72
2023/09/20 03:57:34;;;;;;;5.40;3.03;;;21.20;49.80;;;;;;5022721;28;20068;-72
2023/09/20 04:00:00;;;;;;;4.20;2.95;;;21.20;49.80;;;;;;5030723;28;20029;-72
2023/09/20 04:02:28;;;;;;;4.05;3.03;;;21.20;49.80;;;;;;5021338;28;20145;-72
2023/09/20 04:04:55;;;;;;;4.32;3.08;;;21.20;49.90;;;;;;5030291;28;20068;-72
2023/09/20 04:07:26;;;;;;;3.67;3.17;;;21.20;49.90;;;;;;5028558;28;20026;-72
2023/09/20 04:09:53;;;;;;;4.68;3.10;;;21.20;49.90;;;;;;5013190;28;20026;-72
2023/09/20 04:12:19;;;;;;;3.45;3.10;;;21.20;49.90;;;;;;5019737;28;20025;-73
2023/09/20 04:14:45;;;;;;;3.83;2.90;;;21.20;49.90;;;;;;5022256;28;20485;-74
2023/09/20 04:17:10;;;;;;;3.53;3.10;;;21.20;50.00;;;;;;5030992;28;20042;-73
2023/09/20 04:19:39;;;;;;;4.55;3.03;;;21.20;50.00;;;;;;5016391;28;20033;-73
2023/09/20 04:22:05;;;;;;;5.22;2.97;;;21.20;50.00;;;;;;5023275;28;20026;-73
2023/09/20 04:24:32;;;;;;;4.72;2.92;;;21.30;50.10;;;;;;5012702;28;20034;-72
2023/09/20 04:26:58;;;;;;;4.43;3.10;;;21.30;50.10;;;;;;5025568;28;20033;-74
2023/09/20 04:29:26;;;;;;;5.38;3.03;;;21.30;50.10;;;;;;5012223;28;20030;-70
2023/09/20 04:31:52;;;;;;;5.15;3.00;;;21.30;50.10;;;;;;5016996;28;20026;-75
2023/09/20 04:34:18;;;;;;;4.70;3.50;;;21.30;50.10;;;;;;5033081;28;20089;-75
2023/09/20 04:36:45;;;;;;;5.40;3.17;;;21.40;50.20;;;;;;5019120;28;20045;-72
2023/09/20 04:39:11;;;;;;;6.97;3.22;;;21.40;50.20;;;;;;5025941;28;20100;-74
2023/09/20 04:41:38;;;;;;;4.75;3.20;;;21.40;50.20;;;;;;5017125;28;20387;-73
2023/09/20 04:44:05;;;;;;;3.50;2.70;;;21.50;50.30;;;;;;5016056;28;20065;-75
2023/09/20 04:46:35;;;;;;;5.30;2.75;;;21.50;50.30;;;;;;5029405;28;20029;-73
2023/09/20 04:49:05;;;;;;;5.30;3.03;;;21.50;50.30;;;;;;5020296;28;20030;-73
2023/09/20 04:51:31;;;;;;;5.45;2.97;;;21.60;50.30;;;;;;5037160;28;20026;-73
2023/09/20 04:53:57;;;;;;;4.88;2.88;;;21.70;50.30;;;;;;5028799;28;20026;-73
2023/09/20 04:56:27;;;;;;;5.13;2.95;;;21.80;50.30;;;;;;5039815;28;20124;-70
2023/09/20 04:58:53;;;;;;;3.90;3.10;;;21.80;50.20;;;;;;5036747;28;20400;-71
2023/09/20 05:01:19;;;;;;;6.18;3.25;;;21.80;50.10;;;;;;5028950;28;20442;-72
2023/09/20 05:03:50;;;;;;;3.40;2.97;;;21.90;50.00;;;;;;5017639;28;20030;-72
2023/09/20 05:06:19;;;;;;;4.15;2.47;;;21.90;50.00;;;;;;5028994;28;20056;-72
2023/09/20 05:08:45;;;;;;;12.95;3.42;;;21.90;50.10;;;;;;5040540;28;20066;-73
2023/09/20 05:11:13;;;;;;;9.00;3.75;;;21.90;50.10;;;;;;5040922;28;20040;-72
2023/09/20 05:13:40;;;;;;;7.10;3.05;;;21.90;50.30;;;;;;5042292;28;20479;-73
2023/09/20 05:16:06;;;;;;;7.88;3.30;;;22.00;50.40;;;;;;5042936;28;20028;-74
2023/09/20 05:18:32;;;;;;;3.80;3.00;;;22.10;50.50;;;;;;5037081;28;20030;-73
2023/09/20 05:20:58;;;;;;;7.45;3.17;;;22.10;50.40;;;;;;5016031;28;20030;-73
2023/09/20 05:23:24;;;;;;;3.78;3.10;;;22.10;50.30;;;;;;5015712;28;20487;-73
2023/09/20 05:25:51;;;;;;;8.52;2.90;;;22.20;50.30;;;;;;5016197;28;20018;-73
2023/09/20 05:28:17;;;;;;;3.58;2.88;;;22.20;50.30;;;;;;5016207;28;20084;-73
2023/09/20 05:30:46;;;;;;;5.53;2.83;;;22.30;50.30;;;;;;5016269;28;20041;-73
2023/09/20 05:33:12;;;;;;;4.57;3.00;;;22.30;50.20;;;;;;5016332;28;20034;-73
2023/09/20 05:35:41;;;;;;;4.72;3.10;;;22.30;50.10;;;;;;5016078;28;20050;-73
2023/09/20 05:38:07;;;;;;;5.72;3.45;;;22.40;50.10;;;;;;5016174;28;20411;-75
2023/09/20 05:40:37;;;;;;;4.00;2.97;;;22.40;50.00;;;;;;5014748;28;20576;-73
2023/09/20 05:43:03;;;;;;;3.70;3.30;;;22.50;50.00;;;;;;5016197;28;20029;-73
2023/09/20 05:45:30;;;;;;;5.00;3.20;;;22.50;49.90;;;;;;5015899;28;20368;-73
2023/09/20 05:47:58;;;;;;;6.07;3.28;;;22.60;49.90;;;;;;5014615;28;20080;-73
2023/09/20 05:50:33;;;;;;;5.85;3.35;;;22.60;49.80;;;;;;5014768;28;20029;-75
2023/09/20 05:52:59;;;;;;;5.57;3.70;;;22.60;49.80;;;;;;5016022;28;20491;-73
2023/09/20 05:55:26;;;;;;;4.72;3.67;;;22.70;49.80;;;;;;5015979;28;20064;-73
2023/09/20 05:57:53;;;;;;;4.50;3.50;;;22.70;49.70;;;;;;5015681;28;20379;-74
2023/09/20 06:00:22;;;;;;;4.97;3.30;;;22.70;49.60;;;;;;5014945;28;20337;-73
2023/09/20 06:02:49;;;;;;;3.95;3.13;;;22.80;49.70;;;;;;5016191;28;20052;-74
2023/09/20 06:05:16;;;;;;;5.15;3.97;;;22.80;49.60;;;;;;5015784;28;20096;-73
2023/09/20 06:07:44;;;;;;;6.15;4.57;;;22.90;49.60;;;;;;5014364;28;20045;-73
2023/09/20 06:10:11;;;;;;;4.97;3.78;;;22.90;49.60;;;;;;5015573;28;20537;-73
2023/09/20 06:12:37;;;;;;;5.80;4.20;;;22.90;49.50;;;;;;5014184;28;20118;-73
2023/09/20 06:15:04;;;;;;;6.18;3.95;;;22.90;49.50;;;;;;5015664;28;20025;-73
2023/09/20 06:17:31;;;;;;;7.05;4.30;;;23.00;49.50;;;;;;5015491;28;20044;-74
2023/09/20 06:19:58;;;;;;;5.00;3.90;;;23.00;49.50;;;;;;5026458;28;20448;-73
2023/09/20 06:22:28;;;;;;;5.47;4.35;;;23.00;49.50;;;;;;5015394;28;20105;-73
2023/09/20 06:24:56;;;;;;;5.57;3.78;;;23.10;49.50;;;;;;5015258;28;20026;-74
2023/09/20 06:27:22;;;;;;;5.72;4.03;;;23.10;49.50;;;;;;5017337;28;20068;-73
2023/09/20 06:29:49;;;;;;;7.80;3.95;;;23.10;49.40;;;;;;5033200;28;20048;-73
2023/09/20 06:32:15;;;;;;;4.55;3.90;;;23.20;49.50;;;;;;5035033;28;20044;-74
2023/09/20 06:34:41;;;;;;;5.85;3.85;;;23.20;49.40;;;;;;5032077;28;20422;-75
2023/09/20 06:37:09;;;;;;;5.43;4.43;;;23.20;49.40;;;;;;5033596;28;20044;-74
2023/09/20 06:39:35;;;;;;;5.40;4.07;;;23.30;49.40;;;;;;5033800;28;20427;-74
2023/09/20 06:42:01;;;;;;;5.90;4.40;;;23.30;49.40;;;;;;5033625;28;20026;-74
2023/09/20 06:44:27;;;;;;;5.90;3.90;;;23.30;49.50;;;;;;5034366;28;20083;-74
2023/09/20 06:46:53;;;;;;;6.30;4.07;;;23.30;49.50;;;;;;5035301;28;20064;-74
2023/09/20 06:49:19;;;;;;;6.57;4.32;;;23.30;49.50;;;;;;5034917;28;20430;-74
2023/09/20 06:51:44;;;;;;;6.65;4.05;;;23.30;49.50;;;;;;5033313;28;20021;-74
2023/09/20 06:54:10;;;;;;;5.00;3.78;;;23.30;49.60;;;;;;5034639;28;20064;-74
2023/09/20 06:56:36;;;;;;;5.10;4.00;;;23.30;49.60;;;;;;5034425;28;20048;-73
2023/09/20 06:59:02;;;;;;;5.97;3.75;;;23.30;49.60;;;;;;5016952;28;20029;-74
2023/09/20 07:01:29;;;;;;;5.85;4.45;;;23.30;49.70;;;;;;5014430;28;20053;-73
2023/09/20 07:03:54;;;;;;;6.40;4.35;;;23.30;49.70;;;;;;5014552;28;20026;-73
2023/09/20 07:06:20;;;;;;;6.55;4.32;;;23.30;49.70;;;;;;5014538;28;20153;-75
2023/09/20 07:08:46;;;;;;;6.03;4.07;;;23.30;49.80;;;;;;5014613;28;20033;-74
2023/09/20 07:11:12;;;;;;;4.93;4.07;;;23.40;49.90;;;;;;5014544;28;20091;-74
2023/09/20 07:13:38;;;;;;;5.63;4.20;;;23.40;49.80;;;;;;5013341;28;20034;-74
2023/09/20 07:16:06;;;;;;;8.88;4.88;;;23.50;49.90;;;;;;5014348;28;20052;-74
2023/09/20 07:18:32;;;;;;;5.82;4.30;;;23.60;49.90;;;;;;5013426;28;20030;-74
2023/09/20 07:20:58;;;;;;;7.05;4.75;;;23.60;49.80;;;;;;5014128;28;20030;-74
2023/09/20 07:23:23;;;;;;;8.23;4.78;;;23.70;49.80;;;;;;5014438;28;20030;-74
2023/09/20 07:25:50;;;;;;;6.55;4.63;;;23.70;49.80;;;;;;5014069;28;20503;-74
2023/09/20 07:28:19;;;;;;;8.20;4.32;;;23.80;49.70;;;;;;5025212;28;20037;-75
2023/09/20 07:30:45;;;;;;;6.40;4.90;;;23.80;49.70;;;;;;5014234;28;20032;-74
2023/09/20 07:33:12;;;;;;;5.65;4.25;;;23.90;49.70;;;;;;5012824;28;20516;-74
2023/09/20 07:35:52;;;;;;;5.05;4.22;;;23.90;49.70;;;;;;5014522;28;20034;-74
2023/09/20 07:38:20;;;;;;;6.07;4.00;;;24.00;49.60;;;;;;5014319;28;20022;-74
2023/09/20 07:40:50;;;;;;;5.95;4.18;;;24.00;49.60;;;;;;5014231;28;20037;-74
2023/09/20 07:43:17;;;;;;;7.40;4.18;;;24.10;49.60;;;;;;5014668;28;20420;-74
2023/09/20 07:45:44;;;;;;;5.22;4.25;;;24.10;49.50;;;;;;5013093;28;20072;-74
2023/09/20 07:48:16;;;;;;;5.43;4.20;;;24.20;49.50;;;;;;5013799;28;20368;-74
2023/09/20 07:50:50;;;;;;;5.60;4.43;;;24.20;49.50;;;;;;5012167;28;20203;-74
2023/09/20 07:53:17;;;;;;;6.45;4.00;;;24.20;49.40;;;;;;5012608;28;20041;-73
2023/09/20 07:55:44;;;;;;;6.80;4.03;;;24.20;49.40;;;;;;5013747;28;20048;-74
2023/09/20 07:58:14;;;;;;;7.45;3.85;;;24.30;49.40;;;;;;5014970;28;20141;-74
2023/09/20 08:00:44;;;;;;;5.90;3.75;;;24.30;49.40;;;;;;5013720;28;20500;-74
2023/09/20 08:03:14;;;;;;;4.60;3.75;;;24.40;49.40;;;;;;5012629;28;20028;-74
2023/09/20 08:05:41;;;;;;;5.50;3.63;;;24.40;49.40;;;;;;5013625;28;20034;-74
2023/09/20 08:08:08;;;;;;;4.68;3.45;;;24.40;49.40;;;;;;5013893;28;20033;-74
2023/09/20 08:10:38;;;;;;;4.97;3.65;;;24.50;49.40;;;;;;5012386;28;20055;-74
2023/09/20 08:13:05;;;;;;;4.53;3.65;;;24.50;49.30;;;;;;5012606;28;20025;-74
2023/09/20 08:15:33;;;;;;;4.70;3.65;;;24.60;49.40;;;;;;5012266;28;20039;-74
2023/09/20 08:20:46;;;;;;;;;;;24.60;49.20;;;;;;5014019;28;20104;-73
2023/09/20 09:01:38;;;;;;;2.95;2.60;;;24.80;48.80;;;;;;5017011;28;20112;-73
2023/09/20 09:04:07;;;;;;;3.28;2.85;;;24.80;48.70;;;;;;5017054;28;20037;-74
2023/09/20 09:06:34;;;;;;;3.97;2.53;;;24.90;48.70;;;;;;5016693;28;20038;-74
2023/09/20 09:08:59;;;;;;;4.03;2.78;;;24.90;48.60;;;;;;5015496;28;20453;-74
2023/09/20 09:11:29;;;;;;;2.92;2.33;;;24.90;48.60;;;;;;5016762;28;20026;-74
2023/09/20 09:13:57;;;;;;;3.47;2.50;;;24.90;48.50;;;;;;5015188;28;20026;-74
2023/09/20 09:16:26;;;;;;;3.40;2.90;;;24.90;48.50;;;;;;5015430;28;20045;-74
2023/09/20 09:18:53;;;;;;;3.80;2.85;;;24.90;48.40;;;;;;5016803;28;20053;-75
2023/09/20 09:21:19;;;;;;;3.50;2.80;;;25.00;48.50;;;;;;5016682;28;20034;-74
2023/09/20 09:23:46;;;;;;;4.15;2.95;;;25.00;48.40;;;;;;5017411;28;20491;-74
2023/09/20 09:26:15;;;;;;;4.82;3.42;;;25.00;48.30;;;;;;5016553;28;20041;-74
2023/09/20 09:28:42;;;;;;;3.22;2.55;;;25.10;48.30;;;;;;5015222;28;20037;-75
2023/09/20 09:31:08;;;;;;;3.58;2.85;;;25.10;48.20;;;;;;5015444;28;20038;-74
2023/09/20 09:33:37;;;;;;;2.90;2.60;;;25.10;48.00;;;;;;5014408;28;20029;-74
2023/09/20 09:36:07;;;;;;;4.15;2.80;;;25.20;48.00;;;;;;5027826;28;20041;-75
2023/09/20 09:38:34;;;;;;;4.35;2.70;;;25.20;48.00;;;;;;5016400;28;20080;-74
2023/09/20 09:41:01;;;;;;;3.65;2.38;;;25.20;47.90;;;;;;5014763;28;20123;-74
2023/09/20 09:43:28;;;;;;;4.13;2.83;;;25.20;47.90;;;;;;5016575;28;20053;-74
2023/09/20 09:45:55;;;;;;;2.97;2.60;;;25.20;47.90;;;;;;5016270;28;20156;-75
2023/09/20 09:48:24;;;;;;;3.40;2.63;;;25.20;47.80;;;;;;5016085;28;20488;-74
2023/09/20 09:50:50;;;;;;;3.63;2.70;;;25.20;47.80;;;;;;5015948;28;20030;-74
2023/09/20 09:53:20;;;;;;;2.85;2.53;;;25.30;47.80;;;;;;5015789;28;20018;-74
2023/09/20 09:55:48;;;;;;;3.88;2.45;;;25.30;47.70;;;;;;5014597;28;20034;-73
2023/09/20 09:58:14;;;;;;;3.25;2.58;;;25.30;47.60;;;;;;5015974;28;20030;-74
2023/09/20 10:00:41;;;;;;;2.80;2.40;;;25.40;47.70;;;;;;5015661;28;20101;-75
2023/09/20 10:03:29;;;;;;;3.08;2.50;;;25.40;47.60;;;;;;5014375;28;20050;-74
2023/09/20 10:06:18;;;;;;;3.90;2.63;;;25.40;47.50;;;;;;5015692;28;20037;-74
2023/09/20 10:08:45;;;;;;;2.35;2.13;;;25.50;47.30;;;;;;5014540;28;20476;-74
2023/09/20 10:11:11;;;;;;;2.60;2.40;;;25.50;47.30;;;;;;5015695;28;20518;-74
2023/09/20 10:13:39;;;;;;;2.97;2.55;;;25.50;47.20;;;;;;5016114;28;20034;-75
2023/09/20 10:16:10;;;;;;;2.90;2.58;;;25.50;47.10;;;;;;5014246;28;20042;-74
2023/09/20 10:18:51;;;;;;;2.72;2.40;;;25.60;47.10;;;;;;5015488;28;20038;-74
2023/09/20 10:21:23;;;;;;;4.43;2.75;;;25.60;47.00;;;;;;5014342;28;20080;-73
2023/09/20 10:24:00;;;;;;;3.10;2.15;;;25.60;47.00;;;;;;5014176;28;20032;-73
2023/09/20 10:26:26;;;;;;;2.97;2.40;;;25.60;46.90;;;;;;5015425;28;20033;-73
2023/09/20 10:29:31;;;;;;;4.53;2.38;;;25.60;46.80;;;;;;5014947;28;20112;-74
2023/09/20 10:32:21;;;;;;;4.50;2.50;;;25.60;46.60;;;;;;5013756;28;20392;-74
2023/09/20 10:35:30;;;;;;;4.07;2.28;;;25.60;46.70;;;;;;5014132;28;20036;-73
2023/09/20 10:38:08;;;;;;;2.65;2.45;;;25.60;46.60;;;;;;5014107;28;20038;-73
2023/09/20 10:40:51;;;;;;;4.00;2.60;;;25.60;46.60;;;;;;5015303;28;20084;-74
2023/09/20 10:43:43;;;;;;;3.35;2.30;;;25.60;46.60;;;;;;5015002;28;20072;-74
2023/09/20 10:46:14;;;;;;;3.50;2.30;;;25.60;46.60;;;;;;5041206;28;20449;-74
2023/09/20 10:48:51;;;;;;;3.00;2.20;;;25.60;46.60;;;;;;5013674;28;20030;-74
2023/09/20 10:51:39;;;;;;;2.58;2.30;;;25.60;46.50;;;;;;5013684;28;20049;-74
2023/09/20 10:54:17;;;;;;;2.95;2.50;;;25.60;46.50;;;;;;5014912;28;20060;-74
2023/09/20 10:56:52;;;;;;;2.88;2.50;;;25.60;46.50;;;;;;4997896;28;20042;-75
2023/09/20 10:59:24;;;;;;;3.78;2.38;;;25.60;46.40;;;;;;5014862;28;20443;-74
2023/09/20 11:01:50;;;;;;;2.60;2.38;;;25.60;46.40;;;;;;5013337;28;20041;-72
2023/09/20 11:04:16;;;;;;;3.28;2.40;;;25.60;47.00;;;;;;5014448;28;20033;-75
2023/09/20 11:06:50;;;;;;;2.85;2.40;;;25.60;46.40;;;;;;5014970;28;20121;-73
2023/09/20 11:09:15;;;;;;;;;;;25.60;46.40;;;;;;5013676;28;20072;-74
2023/09/20 11:11:43;;;;;;;2.65;2.30;;;25.60;46.20;;;;;;5014572;28;20008;-73
2023/09/20 11:14:12;;;;;;;3.63;2.25;;;25.50;46.30;;;;;;5014581;28;20608;-73
2023/09/20 11:16:42;;;;;;;2.85;2.30;;;25.60;46.30;;;;;;5014241;28;20468;-73
2023/09/20 11:19:10;;;;;;;2.58;2.30;;;25.60;46.20;;;;;;5015626;28;20037;-73
2023/09/20 11:21:36;;;;;;;2.30;2.10;;;25.50;46.10;;;;;;5015472;28;20042;-73
2023/09/20 11:24:03;;;;;;;4.97;2.22;;;25.50;46.10;;;;;;5013269;28;20053;-74
2023/09/20 11:26:29;;;;;;;3.88;2.30;;;25.50;46.20;;;;;;5013386;28;20495;-74
2023/09/20 11:28:56;;;;;;;2.63;2.35;;;25.50;46.20;;;;;;5014259;28;20026;-73
2023/09/20 11:31:26;;;;;;;2.47;2.10;;;25.50;46.20;;;;;;5014087;28;20030;-73
2023/09/20 11:34:06;;;;;;;2.35;2.15;;;25.50;46.20;;;;;;5013324;28;20040;-74
2023/09/20 11:36:44;;;;;;;2.95;2.30;;;25.50;46.20;;;;;;5012929;28;20045;-73
2023/09/20 11:39:22;;;;;;;2.92;2.30;;;25.40;46.10;;;;;;5012817;28;20079;-73
2023/09/20 11:41:48;;;;;;;2.70;2.28;;;25.40;46.10;;;;;;5013971;28;20037;-73
2023/09/20 11:44:17;;;;;;;3.42;2.25;;;25.40;46.10;;;;;;5014102;28;20050;-73
2023/09/20 11:46:50;;;;;;;2.50;2.30;;;25.40;46.00;;;;;;5014312;28;20030;-73
2023/09/20 11:49:15;;;;;;;3.13;2.30;;;25.40;46.00;;;;;;5013848;28;20141;-73
2023/09/20 11:51:43;;;;;;;3.05;2.20;;;25.40;46.00;;;;;;5024796;28;20049;-73
2023/09/20 11:54:11;;;;;;;2.63;2.20;;;25.40;45.90;;;;;;5013559;28;20064;-73
2023/09/20 11:56:37;;;;;;;4.53;2.33;;;25.40;45.80;;;;;;5013651;28;20034;-73
2023/09/20 11:59:10;;;;;;;2.67;2.10;;;25.40;45.70;;;;;;5017801;28;20030;-74
2023/09/20 12:01:42;;;;;;;3.00;2.20;;;25.40;45.70;;;;;;5033435;28;20056;-74
2023/09/20 12:04:08;;;;;;;3.30;2.35;;;25.40;45.60;;;;;;5032393;28;20460;-73
2023/09/20 12:06:35;;;;;;;3.15;2.00;;;25.40;45.60;;;;;;5033356;28;20033;-74
2023/09/20 12:09:01;;;;;;;2.22;1.83;;;25.40;45.50;;;;;;5030262;28;20029;-74
2023/09/20 12:11:28;;;;;;;2.75;2.15;;;25.40;45.50;;;;;;5033232;28;20044;-73
2023/09/20 12:13:54;;;;;;;3.30;1.90;;;25.40;45.40;;;;;;5033533;28;20041;-75
2023/09/20 12:16:23;;;;;;;2.08;1.88;;;25.40;45.40;;;;;;5033273;28;20464;-73
2023/09/20 12:18:55;;;;;;;2.58;1.95;;;25.40;45.40;;;;;;5030241;28;20025;-74
2023/09/20 12:21:21;;;;;;;4.32;2.00;;;25.40;45.30;;;;;;5031933;28;20045;-73
2023/09/20 12:23:47;;;;;;;2.70;2.10;;;25.40;45.20;;;;;;5032900;28;20460;-73
2023/09/20 12:26:13;;;;;;;2.17;1.98;;;25.50;45.20;;;;;;5033097;28;20037;-73
2023/09/20 12:28:39;;;;;;;1.80;1.70;;;25.50;45.10;;;;;;5033379;28;20022;-73
2023/09/20 12:31:06;;;;;;;3.92;2.30;;;25.50;45.00;;;;;;5033266;28;20041;-73
2023/09/20 12:33:31;;;;;;;2.92;1.95;;;25.50;44.90;;;;;;5033551;28;20125;-73
2023/09/20 12:35:59;;;;;;;1.75;1.65;;;25.50;44.80;;;;;;5032812;28;20116;-73
2023/09/20 12:38:29;;;;;;;2.28;2.05;;;25.60;44.70;;;;;;5033288;28;20057;-73
2023/09/20 12:40:56;;;;;;;3.10;2.00;;;25.60;44.70;;;;;;5033368;28;20026;-73
2023/09/20 12:43:22;;;;;;;3.67;2.00;;;25.60;44.70;;;;;;5012418;28;20030;-73
2023/09/20 12:45:47;;;;;;;2.15;1.92;;;25.60;44.50;;;;;;5013515;28;20037;-73
2023/09/20 12:48:13;;;;;;;2.30;1.83;;;25.60;44.50;;;;;;5013473;28;20045;-73
2023/09/20 12:50:41;;;;;;;2.53;2.05;;;25.60;44.40;;;;;;5013231;28;20065;-73
2023/09/20 12:53:08;;;;;;;2.50;1.90;;;25.60;44.40;;;;;;5013456;28;20022;-73
2023/09/20 12:55:38;;;;;;;2.25;1.90;;;25.60;44.20;;;;;;5013249;28;20026;-74
2023/09/20 12:58:06;;;;;;;2.30;2.10;;;25.60;44.20;;;;;;5025061;28;20018;-73
2023/09/20 13:00:36;;;;;;;2.53;1.80;;;25.60;44.20;;;;;;5011879;28;20171;-73
2023/09/20 13:03:08;;;;;;;2.53;2.00;;;25.50;44.00;;;;;;5011756;28;20057;-72
2023/09/20 13:05:37;;;;;;;2.50;2.10;;;25.50;44.00;;;;;;5032071;28;20030;-73
2023/09/20 13:08:04;;;;;;;2.35;1.80;;;25.50;44.00;;;;;;5033030;28;20029;-73
2023/09/20 13:10:32;;;;;;;2.20;2.00;;;25.50;44.60;;;;;;5035158;28;20033;-72
2023/09/20 13:12:58;;;;;;;2.53;1.67;;;25.50;44.00;;;;;;5036200;28;20018;-72
2023/09/20 13:15:23;;;;;;;2.15;1.90;;;25.50;44.00;;;;;;5036182;28;20451;-73
2023/09/20 13:17:51;;;;;;;2.33;1.83;;;25.50;44.00;;;;;;5036488;28;20128;-74
2023/09/20 13:20:18;;;;;;;3.08;2.20;;;25.50;43.90;;;;;;5036407;28;20025;-73
2023/09/20 13:22:52;;;;;;;3.78;1.95;;;25.50;43.80;;;;;;5036236;28;20030;-73
2023/09/20 13:25:19;;;;;;;2.22;1.73;;;25.40;43.80;;;;;;5036532;28;20383;-73
2023/09/20 13:27:46;;;;;;;1.90;1.70;;;25.40;43.80;;;;;;5034365;28;20024;-73
2023/09/20 13:30:12;;;;;;;1.75;1.65;;;25.40;43.80;;;;;;5036007;28;20068;-73
2023/09/20 13:32:41;;;;;;;3.80;1.92;;;25.40;43.80;;;;;;5034700;28;20061;-73
2023/09/20 13:35:10;;;;;;;3.03;1.90;;;25.30;43.80;;;;;;5035700;28;20029;-74